EDDL/DUS METAR and TAF weather

Enter ICAO airport designator
Station Type Date Time Source
EDDL METAR 2019/06/17 06:50 UTC NOAA

EDDL 170650Z 15004KT 100V220 CAVOK 20/12 Q1021 NOSIG


Station Type Date Time Source
EDDL Decoded METAR 2019/06/17 06:50 UTC NOAA

Duesseldorf, Germany (EDDL) 51-18N 006-46E 41M
Jun 17, 2019 - 02:50 AM EDT / 2019.06.17 0650 UTC
Wind: from the SSE (150 degrees) at 5 MPH (4 KT) (direction variable):0
Visibility: greater than 7 mile(s):0
Temperature: 68 F (20 C)
Dew Point: 53 F (12 C)
Relative Humidity: 59%
Pressure (altimeter): 30.15 in. Hg (1021 hPa)
ob: EDDL 170650Z 15004KT 100V220 CAVOK 20/12 Q1021 NOSIG
cycle: 7

Station Type Date Time Source
EDDL TAF 2019/06/17 06:27 UTC NOAA

TAF EDDL 170500Z 1706/1812 VRB03KT CAVOK
BECMG 1707/1709 16006KT
BECMG 1715/1718 VRB03KT
BECMG 1807/1809 17006KT

Example: see airport list